createdAt,value
2022-10-17T00:00:36.675Z,15.18
2022-10-17T00:03:03.548Z,15.18
2022-10-17T00:05:30.329Z,15.17
2022-10-17T00:07:57.085Z,15.15
2022-10-17T00:10:23.794Z,15.14
2022-10-17T00:12:51.576Z,15.16
2022-10-17T00:15:20.123Z,15.18
2022-10-17T00:17:46.831Z,15.21
2022-10-17T00:20:14.277Z,15.27
2022-10-17T00:22:41.582Z,15.31
2022-10-17T00:25:08.543Z,15.32
2022-10-17T00:27:37.253Z,15.27
2022-10-17T00:30:05.534Z,15.17
2022-10-17T00:32:32.224Z,15.15
2022-10-17T00:34:59.262Z,15.13
2022-10-17T00:37:26.004Z,15.10
2022-10-17T00:39:54.030Z,15.05
2022-10-17T00:42:20.751Z,15.07
2022-10-17T00:44:47.556Z,15.08
2022-10-17T00:47:19.452Z,15.09
2022-10-17T00:49:47.226Z,15.10
2022-10-17T00:52:26.866Z,15.11
2022-10-17T00:54:58.242Z,15.05
2022-10-17T00:57:25.279Z,15.01
2022-10-17T00:59:57.101Z,14.99
2022-10-17T01:02:24.357Z,14.97
2022-10-17T01:04:54.891Z,15.00
2022-10-17T01:07:21.872Z,14.99
2022-10-17T01:09:49.520Z,14.90
2022-10-17T01:12:25.012Z,14.90
2022-10-17T01:15:13.707Z,14.92
2022-10-17T01:18:04.628Z,14.93
2022-10-17T01:21:09.696Z,15.00
2022-10-17T01:24:07.359Z,15.04
2022-10-17T01:27:01.373Z,15.01
2022-10-17T01:29:38.865Z,15.03
2022-10-17T01:32:15.929Z,15.06
2022-10-17T01:34:57.920Z,15.04
2022-10-17T01:37:48.137Z,15.03
2022-10-17T01:40:22.448Z,15.02
2022-10-17T01:43:00.840Z,15.06
2022-10-17T01:45:39.302Z,15.09
2022-10-17T01:48:15.125Z,15.11
2022-10-17T01:50:48.541Z,15.02
2022-10-17T01:53:22.558Z,14.93
2022-10-17T01:55:52.022Z,14.88
2022-10-17T01:58:52.824Z,14.90
2022-10-17T02:01:22.108Z,14.85
2022-10-17T02:03:51.062Z,14.79
2022-10-17T02:06:18.375Z,14.75
2022-10-17T02:08:50.506Z,14.76
2022-10-17T02:11:26.605Z,14.73
2022-10-17T02:13:56.233Z,14.69
2022-10-17T02:16:56.078Z,14.64
2022-10-17T02:19:45.995Z,14.60
2022-10-17T02:22:18.881Z,14.62
2022-10-17T02:24:52.420Z,14.58
2022-10-17T02:27:33.016Z,14.55
2022-10-17T02:30:12.249Z,14.55
2022-10-17T02:32:46.688Z,14.47
2022-10-17T02:35:17.701Z,14.51
2022-10-17T02:37:47.284Z,14.46
2022-10-17T02:40:17.466Z,14.47
2022-10-17T02:42:45.982Z,14.43
2022-10-17T02:45:14.687Z,14.40
2022-10-17T02:48:04.913Z,14.40
2022-10-17T02:50:54.041Z,14.38
2022-10-17T02:54:18.098Z,14.32
2022-10-17T02:56:55.157Z,14.30
2022-10-17T02:59:25.366Z,14.27
2022-10-17T03:01:52.910Z,14.25
2022-10-17T03:04:20.065Z,14.23
2022-10-17T03:06:48.102Z,14.24
2022-10-17T03:09:15.320Z,14.26
2022-10-17T03:11:42.233Z,14.24
2022-10-17T03:14:08.995Z,14.22
2022-10-17T03:16:35.710Z,14.15
2022-10-17T03:19:02.437Z,14.17
2022-10-17T03:21:29.179Z,14.26
2022-10-17T03:23:55.984Z,14.23
2022-10-17T03:26:22.746Z,14.23
2022-10-17T03:28:51.977Z,14.22
2022-10-17T03:31:21.671Z,14.18
2022-10-17T03:33:48.884Z,14.13
2022-10-17T03:36:18.172Z,14.17
2022-10-17T03:38:45.534Z,14.07
2022-10-17T03:41:12.318Z,14.05
2022-10-17T03:43:42.136Z,14.02
2022-10-17T03:46:08.946Z,14.02
2022-10-17T03:48:35.736Z,13.97
2022-10-17T03:51:05.642Z,13.98
2022-10-17T03:53:32.985Z,13.98
2022-10-17T03:56:29.230Z,13.93
2022-10-17T03:58:56.446Z,13.94
2022-10-17T04:01:23.936Z,13.89
2022-10-17T04:03:53.345Z,13.85
2022-10-17T04:06:21.050Z,13.80
2022-10-17T04:08:48.423Z,13.79
2022-10-17T04:11:18.155Z,13.84
2022-10-17T04:13:45.452Z,13.84
2022-10-17T04:16:15.235Z,13.85
2022-10-17T04:18:43.037Z,13.89
2022-10-17T04:21:10.725Z,13.89
2022-10-17T04:23:37.454Z,13.83
2022-10-17T04:26:05.188Z,13.80
2022-10-17T04:28:33.208Z,13.80
2022-10-17T04:31:05.708Z,13.80
2022-10-17T04:33:33.374Z,13.84
2022-10-17T04:36:01.946Z,13.82
2022-10-17T04:38:29.442Z,13.80
2022-10-17T04:41:03.079Z,13.79
2022-10-17T04:43:35.478Z,13.68
2022-10-17T04:46:04.531Z,13.65
2022-10-17T04:48:31.747Z,13.60
2022-10-17T04:51:00.915Z,13.64
2022-10-17T04:53:28.556Z,13.62
2022-10-17T04:55:55.275Z,13.65
2022-10-17T04:58:22.259Z,13.63
2022-10-17T05:00:49.047Z,13.64
2022-10-17T05:03:16.282Z,13.66
2022-10-17T05:05:43.414Z,13.64
2022-10-17T05:08:11.171Z,13.60
2022-10-17T05:10:43.615Z,13.67
2022-10-17T05:13:11.061Z,13.68
2022-10-17T05:15:38.216Z,13.62
2022-10-17T05:18:06.164Z,13.54
2022-10-17T05:20:33.484Z,13.55
2022-10-17T05:23:00.855Z,13.51
2022-10-17T05:25:27.975Z,13.47
2022-10-17T05:27:54.639Z,13.45
2022-10-17T05:30:21.357Z,13.44
2022-10-17T05:32:48.224Z,13.44
2022-10-17T05:35:14.933Z,13.44
2022-10-17T05:37:41.624Z,13.43
2022-10-17T05:40:08.734Z,13.43
2022-10-17T05:42:35.455Z,13.35
2022-10-17T05:45:02.394Z,13.34
2022-10-17T05:47:29.439Z,13.34
2022-10-17T05:49:56.215Z,13.39
2022-10-17T05:52:22.829Z,13.44
2022-10-17T05:54:49.524Z,13.44
2022-10-17T05:57:16.206Z,13.44
2022-10-17T05:59:42.918Z,13.38
2022-10-17T06:02:12.835Z,13.37
2022-10-17T06:04:45.281Z,13.39
2022-10-17T06:07:16.118Z,13.38
2022-10-17T06:09:43.422Z,13.39
2022-10-17T06:12:10.071Z,13.44
2022-10-17T06:14:36.770Z,13.41
2022-10-17T06:17:04.075Z,13.41
2022-10-17T06:19:30.721Z,13.40
2022-10-17T06:21:57.363Z,13.43
2022-10-17T06:24:24.065Z,13.45
2022-10-17T06:26:51.076Z,13.48
2022-10-17T06:29:18.001Z,13.40
2022-10-17T06:31:44.670Z,13.34
2022-10-17T06:34:11.352Z,13.31
2022-10-17T06:36:38.006Z,13.31
2022-10-17T06:39:04.732Z,13.33
2022-10-17T06:41:31.454Z,13.40
2022-10-17T06:43:58.300Z,13.48
2022-10-17T06:46:26.774Z,13.55
2022-10-17T06:48:53.513Z,13.64
2022-10-17T06:51:20.495Z,13.69
2022-10-17T06:53:47.392Z,13.68
2022-10-17T06:56:14.197Z,13.66
2022-10-17T06:58:41.694Z,13.70
2022-10-17T07:01:11.553Z,13.78
2022-10-17T07:03:39.654Z,13.88
2022-10-17T07:06:06.682Z,14.01
2022-10-17T07:08:33.654Z,14.10
2022-10-17T07:11:09.236Z,14.15
2022-10-17T07:13:39.126Z,14.24
2022-10-17T07:16:06.888Z,14.33
2022-10-17T07:18:33.832Z,14.41
2022-10-17T07:21:00.950Z,14.48
2022-10-17T07:23:28.064Z,14.57
2022-10-17T07:25:59.921Z,14.61
2022-10-17T07:28:26.933Z,14.67
2022-10-17T07:30:54.418Z,14.71
2022-10-17T07:33:21.681Z,14.74
2022-10-17T07:35:48.806Z,14.83
2022-10-17T07:38:15.622Z,14.89
2022-10-17T07:40:42.900Z,14.99
2022-10-17T07:43:09.865Z,15.11
2022-10-17T07:45:36.701Z,15.27
2022-10-17T07:48:03.534Z,15.42
2022-10-17T07:50:31.883Z,15.58
2022-10-17T07:52:58.572Z,15.72
2022-10-17T07:55:25.268Z,15.83
2022-10-17T07:57:51.953Z,15.90
2022-10-17T08:00:18.730Z,16.01
2022-10-17T08:02:45.516Z,16.15
2022-10-17T08:05:12.188Z,16.33
2022-10-17T08:07:39.005Z,16.46
2022-10-17T08:10:06.174Z,16.58
2022-10-17T08:12:34.344Z,16.61
2022-10-17T08:15:01.552Z,16.74
2022-10-17T08:17:28.371Z,16.98
2022-10-17T08:19:55.048Z,17.17
2022-10-17T08:22:21.811Z,17.39
2022-10-17T08:24:48.505Z,17.52
2022-10-17T08:27:15.428Z,17.49
2022-10-17T08:29:42.335Z,17.56
2022-10-17T08:32:10.282Z,17.62
2022-10-17T08:34:37.206Z,17.68
2022-10-17T08:37:04.021Z,17.77
2022-10-17T08:39:30.794Z,17.90
2022-10-17T08:42:25.135Z,18.09
2022-10-17T08:45:14.577Z,18.34
2022-10-17T08:47:45.371Z,18.59
2022-10-17T08:50:36.722Z,18.90
2022-10-17T08:53:26.716Z,19.10
2022-10-17T08:55:54.857Z,19.18
2022-10-17T08:58:29.088Z,19.12
2022-10-17T09:01:13.121Z,19.12
2022-10-17T09:03:43.522Z,19.07
2022-10-17T09:06:31.377Z,19.11
2022-10-17T09:09:35.819Z,19.43
2022-10-17T09:12:17.211Z,19.76
2022-10-17T09:15:14.759Z,19.96
2022-10-17T09:18:11.352Z,20.18
2022-10-17T09:20:57.934Z,20.14
2022-10-17T09:23:43.898Z,20.19
2022-10-17T09:26:12.226Z,20.45
2022-10-17T09:28:40.862Z,20.67
2022-10-17T09:31:20.327Z,20.91
2022-10-17T09:33:54.246Z,20.95
2022-10-17T09:36:24.635Z,21.06
2022-10-17T09:38:57.858Z,21.26
2022-10-17T09:41:49.211Z,21.36
2022-10-17T09:44:15.981Z,21.60
2022-10-17T09:46:53.909Z,21.72
2022-10-17T09:49:29.201Z,21.91
2022-10-17T09:51:55.966Z,22.05
2022-10-17T09:54:25.111Z,22.12
2022-10-17T09:57:07.372Z,22.27
2022-10-17T09:59:37.616Z,22.37
2022-10-17T10:02:25.078Z,22.55
2022-10-17T10:05:03.762Z,22.62
2022-10-17T10:07:34.183Z,22.70
2022-10-17T10:10:03.511Z,22.70
2022-10-17T10:12:39.010Z,22.66
2022-10-17T10:15:41.005Z,22.63
2022-10-17T10:18:26.176Z,22.74
2022-10-17T10:21:09.457Z,22.87
2022-10-17T10:23:40.022Z,22.95
2022-10-17T10:26:21.048Z,23.20
2022-10-17T10:28:57.913Z,23.47
2022-10-17T10:31:37.213Z,23.63
2022-10-17T10:34:16.703Z,23.80
2022-10-17T10:36:46.574Z,24.04
2022-10-17T10:39:30.778Z,24.23
2022-10-17T10:41:58.160Z,24.34
2022-10-17T10:44:28.781Z,24.50
2022-10-17T10:47:17.006Z,24.73
2022-10-17T10:49:44.282Z,24.94
2022-10-17T10:52:22.422Z,25.13
2022-10-17T10:55:15.666Z,25.40
2022-10-17T10:57:44.920Z,25.59
2022-10-17T11:00:17.344Z,25.92
2022-10-17T11:03:13.359Z,26.26
2022-10-17T11:05:50.497Z,26.33
2022-10-17T11:08:31.484Z,26.63
2022-10-17T11:11:28.056Z,26.76
2022-10-17T11:14:03.737Z,27.24
2022-10-17T11:16:33.465Z,27.59
2022-10-17T11:19:12.284Z,27.89
2022-10-17T11:22:07.369Z,28.01
2022-10-17T11:24:42.817Z,27.92
2022-10-17T11:27:09.791Z,27.87
2022-10-17T11:29:42.069Z,28.27
2022-10-17T11:32:19.494Z,28.62
2022-10-17T11:34:51.978Z,28.92
2022-10-17T11:37:22.885Z,29.41
2022-10-17T11:40:02.098Z,29.74
2022-10-17T11:42:39.576Z,29.74
2022-10-17T11:45:14.184Z,29.85
2022-10-17T11:47:47.197Z,29.78
2022-10-17T11:53:15.978Z,29.63
2022-10-17T11:55:44.442Z,30.12
2022-10-17T11:58:23.671Z,30.31
2022-10-17T12:00:56.434Z,30.11
2022-10-17T12:03:54.415Z,30.28
2022-10-17T12:06:39.140Z,30.61
2022-10-17T12:09:23.101Z,30.96
2022-10-17T12:11:58.522Z,30.84
2022-10-17T12:14:47.429Z,31.23
2022-10-17T12:17:23.132Z,31.08
2022-10-17T12:19:49.918Z,30.97
2022-10-17T12:22:26.762Z,31.03
2022-10-17T12:24:58.062Z,31.10
2022-10-17T12:27:46.382Z,31.25
2022-10-17T12:30:16.836Z,31.18
2022-10-17T12:33:07.470Z,31.18
2022-10-17T12:35:37.993Z,31.15
2022-10-17T12:38:23.156Z,31.05
2022-10-17T12:40:52.399Z,31.06
2022-10-17T12:43:28.392Z,30.94
2022-10-17T12:45:56.101Z,30.90
2022-10-17T12:48:38.374Z,30.78
2022-10-17T12:51:34.291Z,30.87
2022-10-17T12:54:12.736Z,30.85
2022-10-17T12:56:49.481Z,30.85
2022-10-17T12:59:30.403Z,30.72
2022-10-17T13:02:06.450Z,30.58
2022-10-17T13:04:36.948Z,30.54
2022-10-17T13:07:04.007Z,30.74
2022-10-17T13:09:38.789Z,30.61
2022-10-17T13:12:13.376Z,30.60
2022-10-17T13:14:42.858Z,30.40
2022-10-17T13:17:29.445Z,30.42
2022-10-17T13:19:57.249Z,30.58
2022-10-17T13:22:30.570Z,30.53
2022-10-17T13:25:16.431Z,30.32
2022-10-17T13:27:43.514Z,30.00
2022-10-17T13:30:32.180Z,29.30
2022-10-17T13:33:02.563Z,29.04
2022-10-17T13:35:58.978Z,29.11
2022-10-17T13:38:28.836Z,29.27
2022-10-17T13:41:05.796Z,29.21
2022-10-17T13:43:48.226Z,29.30
2022-10-17T13:46:44.701Z,29.01
2022-10-17T13:49:36.739Z,28.83
2022-10-17T13:52:07.343Z,28.44
2022-10-17T13:54:36.322Z,28.18
2022-10-17T13:57:04.998Z,28.20
2022-10-17T13:59:42.366Z,28.06
2022-10-17T14:02:32.262Z,27.51
2022-10-17T14:05:19.527Z,27.07
2022-10-17T14:08:10.578Z,26.65
2022-10-17T14:10:39.932Z,26.41
2022-10-17T14:13:08.358Z,26.32
2022-10-17T14:15:36.662Z,26.19
2022-10-17T14:18:08.029Z,26.02
2022-10-17T14:21:19.823Z,25.65
2022-10-17T14:23:33.592Z,25.55
2022-10-17T14:26:09.666Z,25.50
2022-10-17T14:28:37.441Z,25.46
2022-10-17T14:31:22.117Z,25.43
2022-10-17T14:33:51.433Z,25.37
2022-10-17T14:36:20.306Z,25.19
2022-10-17T14:38:51.865Z,25.07
2022-10-17T14:44:34.292Z,24.84
2022-10-17T14:47:30.858Z,24.77
2022-10-17T14:50:11.909Z,24.58
2022-10-17T14:52:39.736Z,24.54
2022-10-17T14:55:34.882Z,24.48
2022-10-17T14:58:02.141Z,24.46
2022-10-17T15:00:28.811Z,24.35
2022-10-17T15:02:56.008Z,24.29
2022-10-17T15:05:23.381Z,24.15
2022-10-17T15:07:50.136Z,24.10
2022-10-17T15:10:34.925Z,24.13
2022-10-17T15:15:51.776Z,23.94
2022-10-17T15:18:18.530Z,23.85
2022-10-17T15:20:45.292Z,23.78
2022-10-17T15:23:12.123Z,23.72
2022-10-17T15:25:39.022Z,23.66
2022-10-17T15:28:05.896Z,23.50
2022-10-17T15:30:36.146Z,23.33
2022-10-17T15:33:03.062Z,23.15
2022-10-17T15:35:30.304Z,23.03
2022-10-17T15:37:57.177Z,22.95
2022-10-17T15:40:28.627Z,22.82
2022-10-17T15:42:56.362Z,22.70
2022-10-17T15:45:23.761Z,22.50
2022-10-17T15:48:02.794Z,22.30
2022-10-17T15:50:30.538Z,22.14
2022-10-17T15:52:57.209Z,21.98
2022-10-17T15:55:24.596Z,21.90
2022-10-17T15:57:51.461Z,21.91
2022-10-17T16:00:24.758Z,21.93
2022-10-17T16:02:51.635Z,21.88
2022-10-17T16:05:25.937Z,21.79
2022-10-17T16:07:53.881Z,21.70
2022-10-17T16:10:22.181Z,21.66
2022-10-17T16:12:50.057Z,21.55
2022-10-17T16:15:22.861Z,21.54
2022-10-17T16:17:50.294Z,21.48
2022-10-17T16:20:17.212Z,21.39
2022-10-17T16:22:44.873Z,21.27
2022-10-17T16:25:19.648Z,21.10
2022-10-17T16:27:47.895Z,20.90
2022-10-17T16:30:15.847Z,20.68
2022-10-17T16:32:42.868Z,20.62
2022-10-17T16:35:16.192Z,20.65
2022-10-17T16:37:43.113Z,20.59
2022-10-17T16:40:10.865Z,20.49
2022-10-17T16:42:40.902Z,20.48
2022-10-17T16:45:08.545Z,20.53
2022-10-17T16:47:35.420Z,20.51
2022-10-17T16:50:06.977Z,20.42
2022-10-17T16:52:33.671Z,20.19
2022-10-17T16:55:00.532Z,19.79
2022-10-17T16:57:27.212Z,19.71
2022-10-17T16:59:54.052Z,19.66
2022-10-17T17:02:23.969Z,19.71
2022-10-17T17:04:50.871Z,19.76
2022-10-17T17:07:21.695Z,19.79
2022-10-17T17:09:48.969Z,19.82
2022-10-17T17:12:15.786Z,19.76
2022-10-17T17:14:42.570Z,19.68
2022-10-17T17:17:15.440Z,19.53
2022-10-17T17:19:51.322Z,19.38
2022-10-17T17:22:18.205Z,19.21
2022-10-17T17:24:44.974Z,19.20
2022-10-17T17:27:13.536Z,19.24
2022-10-17T17:29:40.440Z,19.27
2022-10-17T17:32:07.186Z,19.28
2022-10-17T17:34:37.534Z,19.22
2022-10-17T17:37:04.598Z,19.22
2022-10-17T17:39:31.454Z,19.12
2022-10-17T17:41:58.236Z,18.99
2022-10-17T17:44:25.379Z,18.96
2022-10-17T17:46:52.388Z,18.82
2022-10-17T17:49:19.197Z,18.69
2022-10-17T17:51:46.505Z,18.70
2022-10-17T17:54:14.403Z,18.73
2022-10-17T17:56:41.297Z,18.72
2022-10-17T17:59:10.378Z,18.60
2022-10-17T18:01:38.737Z,18.46
2022-10-17T18:04:08.561Z,18.46
2022-10-17T18:06:36.761Z,18.44
2022-10-17T18:09:04.780Z,18.40
2022-10-17T18:11:32.316Z,18.31
2022-10-17T18:14:04.671Z,18.26
2022-10-17T18:16:33.362Z,18.31
2022-10-17T18:19:06.732Z,18.25
2022-10-17T18:21:34.914Z,18.20
2022-10-17T18:24:02.187Z,18.10
2022-10-17T18:26:28.918Z,18.08
2022-10-17T18:28:56.165Z,18.03
2022-10-17T18:31:28.176Z,17.83
2022-10-17T18:33:59.999Z,17.76
2022-10-17T18:36:28.120Z,17.80
2022-10-17T18:38:58.176Z,17.83
2022-10-17T18:41:26.148Z,17.91
2022-10-17T18:43:56.418Z,17.89
2022-10-17T18:46:25.587Z,17.75
2022-10-17T18:48:52.533Z,17.71
2022-10-17T18:51:21.880Z,17.69
2022-10-17T18:53:51.515Z,17.58
2022-10-17T18:56:19.562Z,17.61
2022-10-17T18:58:46.861Z,17.56
2022-10-17T19:01:19.499Z,17.39
2022-10-17T19:03:49.401Z,17.34
2022-10-17T19:06:17.994Z,17.40
2022-10-17T19:08:45.424Z,17.42
2022-10-17T19:11:20.911Z,17.44
2022-10-17T19:13:48.733Z,17.37
2022-10-17T19:16:24.856Z,17.39
2022-10-17T19:18:53.858Z,17.39
2022-10-17T19:21:22.092Z,17.40
2022-10-17T19:23:54.694Z,17.42
2022-10-17T19:26:22.867Z,17.37
2022-10-17T19:28:53.581Z,17.32
2022-10-17T19:31:26.538Z,17.32
2022-10-17T19:33:55.586Z,17.28
2022-10-17T19:36:28.898Z,17.33
2022-10-17T19:38:59.655Z,17.27
2022-10-17T19:41:27.030Z,17.26
2022-10-17T19:43:53.950Z,17.34
2022-10-17T19:46:24.547Z,17.34
2022-10-17T19:48:51.902Z,17.28
2022-10-17T19:51:20.491Z,17.22
2022-10-17T19:53:47.600Z,17.23
2022-10-17T19:56:18.514Z,17.19
2022-10-17T19:58:48.199Z,17.12
2022-10-17T20:01:18.920Z,17.13
2022-10-17T20:03:46.452Z,17.11
2022-10-17T20:06:13.974Z,17.11
2022-10-17T20:08:41.370Z,17.12
2022-10-17T20:11:11.650Z,17.13
2022-10-17T20:13:38.898Z,17.16
2022-10-17T20:16:07.939Z,17.08
2022-10-17T20:18:36.182Z,16.97
2022-10-17T20:21:09.588Z,16.94
2022-10-17T20:23:36.589Z,16.96
2022-10-17T20:26:25.457Z,16.96
2022-10-17T20:28:54.035Z,16.95
2022-10-17T20:31:21.512Z,16.90
2022-10-17T20:33:48.134Z,16.86
2022-10-17T20:36:14.855Z,16.83
2022-10-17T20:38:41.564Z,16.78
2022-10-17T20:41:09.929Z,16.69
2022-10-17T20:43:37.599Z,16.61
2022-10-17T20:46:21.885Z,16.57
2022-10-17T20:48:53.989Z,16.62
2022-10-17T20:51:21.655Z,16.63
2022-10-17T20:53:49.044Z,16.57
2022-10-17T20:56:20.638Z,16.57
2022-10-17T20:58:52.944Z,16.57
2022-10-17T21:01:20.748Z,16.56
2022-10-17T21:03:47.650Z,16.56
2022-10-17T21:06:14.843Z,16.55
2022-10-17T21:08:42.303Z,16.55
2022-10-17T21:11:15.945Z,16.55
2022-10-17T21:13:43.194Z,16.60
2022-10-17T21:16:12.489Z,16.66
2022-10-17T21:18:40.077Z,16.69
2022-10-17T21:21:29.499Z,16.72
2022-10-17T21:24:00.268Z,16.74
2022-10-17T21:26:27.852Z,16.69
2022-10-17T21:28:55.559Z,16.71
2022-10-17T21:31:27.639Z,16.70
2022-10-17T21:33:56.716Z,16.61
2022-10-17T21:36:24.927Z,16.60
2022-10-17T21:38:53.173Z,16.55
2022-10-17T21:41:21.995Z,16.51
2022-10-17T21:43:52.725Z,16.50
2022-10-17T21:46:20.503Z,16.50
2022-10-17T21:48:48.141Z,16.47
2022-10-17T21:51:16.988Z,16.36
2022-10-17T21:53:44.038Z,16.23
2022-10-17T21:56:13.335Z,16.16
2022-10-17T21:58:40.555Z,16.15
2022-10-17T22:01:08.669Z,16.22
2022-10-17T22:03:42.694Z,16.12
2022-10-17T22:09:02.918Z,16.00
2022-10-17T22:11:31.556Z,16.01
2022-10-17T22:14:04.284Z,16.00
2022-10-17T22:16:31.222Z,16.06
2022-10-17T22:19:03.197Z,16.13
2022-10-17T22:21:32.984Z,16.12
2022-10-17T22:24:02.220Z,16.01
2022-10-17T22:26:30.911Z,16.01
2022-10-17T22:28:57.965Z,16.05
2022-10-17T22:31:25.147Z,16.02
2022-10-17T22:33:52.362Z,16.02
2022-10-17T22:36:19.351Z,15.94
2022-10-17T22:38:46.123Z,15.99
2022-10-17T22:41:12.815Z,16.01
2022-10-17T22:43:39.634Z,16.00
2022-10-17T22:46:07.342Z,15.98
2022-10-17T22:48:34.589Z,15.97
2022-10-17T22:51:01.340Z,15.93
2022-10-17T22:53:29.615Z,15.86
2022-10-17T22:56:02.009Z,15.87
2022-10-17T22:58:30.587Z,15.87
2022-10-17T23:00:58.401Z,15.83
2022-10-17T23:03:27.932Z,15.83
2022-10-17T23:05:55.037Z,15.85
2022-10-17T23:08:21.725Z,15.85
2022-10-17T23:10:48.572Z,15.77
2022-10-17T23:13:15.748Z,15.76
2022-10-17T23:15:43.423Z,15.75
2022-10-17T23:18:10.170Z,15.75
2022-10-17T23:20:37.992Z,15.76
2022-10-17T23:23:05.096Z,15.75
2022-10-17T23:25:33.883Z,15.69
2022-10-17T23:28:01.054Z,15.65
2022-10-17T23:30:28.092Z,15.70
2022-10-17T23:32:54.832Z,15.64
2022-10-17T23:35:21.548Z,15.59
2022-10-17T23:37:48.257Z,15.57
2022-10-17T23:40:15.034Z,15.59
2022-10-17T23:42:41.809Z,15.58
2022-10-17T23:45:09.073Z,15.55
2022-10-17T23:47:35.812Z,15.59
2022-10-17T23:50:03.436Z,15.56
2022-10-17T23:52:30.141Z,15.49
2022-10-17T23:54:56.827Z,15.55
2022-10-17T23:57:23.529Z,15.45
2022-10-17T23:59:50.208Z,15.42
